.
WxDataArchive / Data Records for 2007-12-08
2007-12-07 December 2007 2007-12-09

Data Records for Saturday, 08 December 2007

Time	Temp	Chill	HIndex	Humid	Dewpt	 Wind 	HiWind	WindDir	Rain 	Barom 
-----	----	-----	------	-----	-----	------	------	-------	-----	----- 
00:00	30.9	30.9	30.9	85	26.9	0	2	248	0.00	30.170 
00:05	30.9	30.9	30.9	85	26.9	1	5	248	0.00	30.172 
00:10	30.9	30.9	30.9	85	26.9	1	4	248	0.00	30.176 
00:15	30.9	30.9	30.9	85	26.9	1	5	248	0.00	30.180 
00:20	30.9	30.9	30.9	85	26.9	1	4	248	0.00	30.182 
00:25	30.9	30.9	30.9	85	26.9	1	4	248	0.00	30.185 
00:30	30.9	30.9	30.9	85	26.9	1	6	248	0.00	30.183 
00:35	30.9	30.9	30.9	85	26.9	1	2	248	0.00	30.187 
00:40	30.9	30.9	30.9	85	26.9	1	4	248	0.00	30.189 
00:45	30.9	30.9	30.9	85	26.9	1	6	248	0.00	30.190 
00:50	30.9	30.9	30.9	85	26.9	1	4	248	0.00	30.190 
00:55	30.9	30.9	30.9	85	26.9	0	2	248	0.00	30.191 
01:00	30.9	30.9	30.9	85	26.9	0	2	248	0.00	30.191 
01:05	30.9	30.9	30.9	85	26.9	0	2	248	0.00	30.192 
01:10	30.9	30.9	30.9	86	27.2	1	4	248	0.00	30.190 
01:15	30.9	30.9	30.9	86	27.2	1	3	248	0.00	30.190 
01:20	30.9	30.9	30.9	86	27.2	1	3	248	0.00	30.191 
01:25	30.9	30.9	30.9	86	27.2	1	3	248	0.00	30.192 
01:30	30.7	30.7	30.7	86	27.0	1	3	248	0.00	30.190 
01:35	30.7	30.7	30.7	86	27.0	1	3	248	0.00	30.189 
01:40	30.7	30.7	30.7	86	27.0	0	2	248	0.00	30.189 
01:45	30.7	30.7	30.7	86	27.0	0	3	248	0.00	30.190 
01:50	30.7	30.7	30.7	86	27.0	0	2	248	0.00	30.189 
01:55	30.7	30.7	30.7	86	27.0	0	2	248	0.00	30.190 
02:00	30.7	30.7	30.7	86	27.0	0	2	248	0.00	30.188 
02:05	30.7	30.7	30.7	86	27.0	0	3	248	0.00	30.188 
02:10	30.7	30.7	30.7	86	27.0	0	2	338	0.00	30.190 
02:15	30.6	30.6	30.6	86	26.9	0	2	270	0.00	30.193 
02:20	30.6	30.6	30.6	86	26.9	1	2	270	0.00	30.197 
02:25	30.7	30.7	30.7	87	27.3	0	4	270	0.00	30.199 
02:30	30.7	30.7	30.7	87	27.3	0	3	270	0.00	30.198 
02:35	30.6	30.6	30.6	87	27.2	0	2	270	0.00	30.203 
02:40	30.7	30.7	30.7	87	27.3	0	2	270	0.00	30.204 
02:45	30.7	30.7	30.7	87	27.3	0	3	270	0.00	30.204 
02:50	30.7	30.7	30.7	86	27.0	1	3	338	0.00	30.204 
02:55	30.7	30.7	30.7	87	27.3	0	1	315	0.00	30.205 
03:00	30.7	30.7	30.7	87	27.3	0	2	270	0.00	30.205 
03:05	30.7	30.7	30.7	86	27.0	0	2	270	0.00	30.205 
03:10	30.6	30.6	30.6	86	26.9	0	2	270	0.00	30.205 
03:15	30.6	30.6	30.6	86	26.9	0	2	270	0.00	30.205 
03:20	30.6	30.6	30.6	86	26.9	0	2	270	0.00	30.207 
03:25	30.6	30.6	30.6	86	26.9	0	1	270	0.00	30.214 
03:30	30.6	30.6	30.6	86	26.9	0	1	270	0.00	30.219 
03:35	30.6	30.6	30.6	86	26.9	0	3	292	0.00	30.222 
03:40	30.6	30.6	30.6	85	26.6	1	3	292	0.00	30.220 
03:45	30.6	30.6	30.6	85	26.6	1	3	270	0.00	30.220 
03:50	30.4	30.4	30.4	85	26.4	1	3	270	0.00	30.221 
03:55	30.4	30.4	30.4	84	26.2	1	3	270	0.00	30.224 
04:00	30.4	30.4	30.4	84	26.2	1	2	248	0.00	30.229 
04:05	30.4	30.4	30.4	85	26.4	0	2	248	0.00	30.227 
04:10	30.3	30.3	30.3	85	26.3	0	2	248	0.00	30.225 
04:15	30.3	30.3	30.3	85	26.3	0	1	248	0.00	30.226 
04:20	30.3	30.3	30.3	85	26.3	0	2	248	0.00	30.229 
04:25	30.3	30.3	30.3	85	26.3	0	1	248	0.00	30.227 
04:30	30.1	30.1	30.1	85	26.1	0	2	248	0.00	30.225 
04:35	30.1	30.1	30.1	85	26.1	1	3	248	0.00	30.230 
04:40	30.0	30.0	30.0	85	26.0	0	2	315	0.00	30.226 
04:45	30.0	30.0	30.0	85	26.0	0	1	315	0.00	30.226 
04:50	29.8	29.8	29.8	85	25.9	0	0	---	0.00	30.229 
04:55	29.8	29.8	29.8	85	25.9	0	1	315	0.00	30.223 
05:00	29.7	29.7	29.7	85	25.8	0	1	315	0.00	30.222 
05:05	29.5	29.5	29.5	85	25.6	0	1	315	0.00	30.223 
05:10	29.3	29.3	29.3	85	25.4	0	0	---	0.00	30.233 
05:15	29.1	29.1	29.1	85	25.2	0	0	---	0.00	30.233 
05:20	28.8	28.8	28.8	85	24.9	0	0	---	0.00	30.236 
05:25	28.7	28.7	28.7	86	25.1	0	1	315	0.00	30.238 
05:30	28.5	28.5	28.5	86	24.9	0	0	---	0.00	30.240 
05:35	28.5	28.5	28.5	87	25.1	0	0	---	0.00	30.244 
05:40	28.4	28.4	28.4	87	25.0	0	0	---	0.00	30.249 
05:45	28.5	28.5	28.5	88	25.4	0	1	315	0.00	30.251 
05:50	28.5	28.5	28.5	88	25.4	0	1	315	0.00	30.251 
05:55	28.7	28.7	28.7	88	25.6	0	1	315	0.00	30.253 
06:00	28.7	28.7	28.7	88	25.6	0	1	315	0.00	30.253 
06:05	28.5	28.5	28.5	88	25.4	0	1	315	0.00	30.254 
06:10	28.5	28.5	28.5	88	25.4	0	1	315	0.00	30.255 
06:15	28.5	28.5	28.5	88	25.4	0	0	---	0.00	30.257 
06:20	28.5	28.5	28.5	88	25.4	0	0	---	0.00	30.260 
06:25	28.5	28.5	28.5	88	25.4	0	1	315	0.00	30.266 
06:30	28.5	28.5	28.5	88	25.4	0	1	315	0.00	30.267 
06:35	28.5	28.5	28.5	88	25.4	0	0	---	0.00	30.269 
06:40	28.5	28.5	28.5	88	25.4	0	0	---	0.00	30.270 
06:45	28.5	28.5	28.5	88	25.4	0	0	---	0.00	30.272 
06:50	28.5	28.5	28.5	88	25.4	0	0	---	0.00	30.276 
06:55	28.5	28.5	28.5	88	25.4	0	0	---	0.00	30.278 
07:00	28.5	28.5	28.5	88	25.4	0	0	---	0.00	30.280 
07:05	28.4	28.4	28.4	88	25.3	0	1	315	0.00	30.281 
07:10	28.2	28.2	28.2	88	25.1	0	1	315	0.00	30.285 
07:15	27.9	27.9	27.9	88	24.8	0	1	315	0.00	30.291 
07:20	27.8	27.8	27.8	88	24.7	0	1	315	0.00	30.288 
07:25	27.8	27.8	27.8	88	24.7	0	1	315	0.00	30.290 
07:30	27.5	27.5	27.5	88	24.4	0	0	---	0.00	30.291 
07:35	27.3	27.3	27.3	88	24.2	0	1	315	0.00	30.296 
07:40	27.2	27.2	27.2	88	24.1	0	1	315	0.00	30.301 
07:45	26.9	26.9	26.9	88	23.8	0	0	---	0.00	30.299 
07:50	26.7	26.7	26.7	89	23.9	0	0	---	0.00	30.301 
07:55	26.4	26.4	26.4	89	23.6	0	0	---	0.00	30.307 
08:00	26.3	26.3	26.3	89	23.5	0	0	---	0.00	30.311 
08:05	26.1	26.1	26.1	89	23.3	0	0	---	0.00	30.306 
08:10	26.0	26.0	26.0	89	23.2	0	0	---	0.00	30.307 
08:15	25.8	25.8	25.8	90	23.3	0	0	---	0.00	30.305 
08:20	25.6	25.6	25.6	90	23.1	0	0	---	0.00	30.309 
08:25	25.6	25.6	25.6	90	23.1	0	0	---	0.00	30.307 
08:30	25.4	25.4	25.4	90	22.9	0	0	---	0.00	30.305 
08:35	25.4	25.4	25.4	90	22.9	0	0	---	0.00	30.309 
08:40	25.6	25.6	25.6	91	23.3	0	0	---	0.00	30.313 
08:45	25.7	25.7	25.7	91	23.4	0	0	---	0.00	30.310 
08:50	25.8	25.8	25.8	91	23.5	0	0	---	0.00	30.316 
08:55	26.1	26.1	26.1	92	24.1	0	0	---	0.00	30.317 
09:00	26.4	26.4	26.4	92	24.4	0	0	---	0.00	30.320 
09:05	26.6	26.6	26.6	92	24.6	0	0	---	0.00	30.318 
09:10	26.9	26.9	26.9	92	24.9	0	0	---	0.00	30.319 
09:15	27.0	27.0	27.0	92	25.0	0	1	315	0.00	30.321 
09:20	27.3	27.3	27.3	92	25.3	0	0	---	0.00	30.322 
09:25	27.8	27.8	27.8	91	25.5	0	1	315	0.00	30.328 
09:30	28.1	28.1	28.1	90	25.6	0	1	315	0.00	30.331 
09:35	28.2	28.2	28.2	88	25.1	0	1	315	0.00	30.330 
09:40	28.5	28.5	28.5	87	25.1	0	3	292	0.00	30.335 
09:45	28.8	28.8	28.8	85	24.9	0	2	292	0.00	30.336 
09:50	29.0	29.0	29.0	83	24.5	0	3	292	0.00	30.343 
09:55	29.1	29.1	29.1	81	24.0	0	2	22	0.00	30.345 
10:00	29.3	29.3	29.3	80	23.9	0	2	22	0.00	30.345 
10:05	29.4	29.4	29.4	79	23.7	0	2	338	0.00	30.347 
10:10	29.5	29.5	29.5	77	23.2	0	3	292	0.00	30.351 
10:15	29.8	29.8	29.8	77	23.5	0	2	292	0.00	30.356 
10:20	30.0	30.0	30.0	76	23.4	0	2	315	0.00	30.359 
10:25	30.1	30.1	30.1	74	22.8	0	3	270	0.00	30.364 
10:30	30.4	30.4	30.4	73	22.8	0	2	270	0.00	30.365 
10:35	30.7	30.7	30.7	72	22.8	0	2	270	0.00	30.362 
10:40	31.0	31.0	31.0	71	22.7	0	2	292	0.00	30.363 
10:45	30.9	30.9	30.9	69	21.9	1	3	292	0.00	30.367 
10:50	30.9	30.9	30.9	70	22.3	0	2	292	0.00	30.365 
10:55	31.0	31.0	31.0	70	22.4	0	2	292	0.00	30.365 
11:00	30.9	30.9	30.9	71	22.6	1	4	112	0.00	30.361 
11:05	31.0	31.0	31.0	71	22.7	1	3	68	0.00	30.358 
11:10	31.3	31.3	31.3	70	22.7	1	2	45	0.00	30.363 
11:15	31.5	31.5	31.5	69	22.5	0	2	45	0.00	30.363 
11:20	31.3	31.3	31.3	69	22.3	1	3	45	0.00	30.369 
11:25	31.2	31.2	31.2	69	22.2	1	3	68	0.00	30.369 
11:30	31.0	31.0	31.0	70	22.4	0	3	90	0.00	30.371 
11:35	31.2	31.2	31.2	71	22.9	0	3	90	0.00	30.369 
11:40	31.0	31.0	31.0	71	22.7	0	2	22	0.00	30.365 
11:45	31.0	31.0	31.0	72	23.1	1	4	90	0.00	30.352 
11:50	31.0	31.0	31.0	72	23.1	1	4	112	0.00	30.349 
11:55	31.2	31.2	31.2	71	22.9	0	2	90	0.00	30.348 
12:00	31.0	31.0	31.0	70	22.4	1	3	338	0.00	30.346 
12:05	31.2	31.2	31.2	70	22.6	1	3	22	0.00	30.347 
12:10	31.3	31.3	31.3	70	22.7	0	3	112	0.00	30.354 
12:15	31.5	31.5	31.5	69	22.5	0	3	112	0.00	30.360 
12:20	31.5	31.5	31.5	68	22.2	0	2	0	0.00	30.357 
12:25	31.6	31.6	31.6	68	22.3	0	1	22	0.00	30.353 
12:30	31.8	31.8	31.8	69	22.8	0	3	112	0.00	30.344 
12:35	31.8	31.8	31.8	69	22.8	1	3	112	0.00	30.345 
12:40	31.8	31.8	31.8	68	22.5	0	2	112	0.00	30.344 
12:45	31.8	31.8	31.8	68	22.5	1	3	90	0.00	30.343 
12:50	31.8	31.8	31.8	68	22.5	0	2	90	0.00	30.338 
12:55	31.6	31.6	31.6	69	22.6	1	2	90	0.00	30.334 
13:00	31.6	31.6	31.6	68	22.3	0	2	90	0.00	30.345 
13:05	31.6	31.6	31.6	67	21.9	0	2	90	0.00	30.340 
13:10	31.6	31.6	31.6	67	21.9	0	1	68	0.00	30.336 
13:15	31.6	31.6	31.6	68	22.3	0	2	68	0.00	30.330 
13:20	31.5	31.5	31.5	68	22.2	1	3	90	0.00	30.322 
13:25	31.5	31.5	31.5	69	22.5	0	2	90	0.00	30.329 
13:30	31.6	31.6	31.6	68	22.3	1	2	90	0.00	30.331 
13:35	31.5	31.5	31.5	68	22.2	0	2	90	0.00	30.334 
13:40	31.5	31.5	31.5	68	22.2	0	2	90	0.00	30.330 
13:45	31.5	31.5	31.5	68	22.2	0	1	90	0.00	30.338 
13:50	31.6	31.6	31.6	68	22.3	0	1	90	0.00	30.338 
13:55	31.6	31.6	31.6	68	22.3	0	1	90	0.00	30.334 
14:00	31.6	31.6	31.6	67	21.9	0	0	---	0.00	30.344 
14:05	31.8	31.8	31.8	68	22.5	0	1	90	0.00	30.350 
14:10	31.6	31.6	31.6	67	21.9	0	1	90	0.00	30.355 
14:15	31.8	31.8	31.8	66	21.8	0	0	---	0.00	30.353 
14:20	31.9	31.9	31.9	66	21.9	0	0	---	0.00	30.356 
14:25	32.1	32.1	32.1	66	22.0	0	2	90	0.00	30.350 
14:30	31.9	31.9	31.9	69	22.9	0	2	90	0.00	30.354 
14:35	31.8	31.8	31.8	69	22.8	0	2	90	0.00	30.355 
14:40	31.8	31.8	31.8	69	22.8	1	2	90	0.00	30.355 
14:45	31.5	31.5	31.5	69	22.5	0	2	90	0.00	30.351 
14:50	31.3	31.3	31.3	70	22.7	0	2	90	0.00	30.353 
14:55	31.3	31.3	31.3	70	22.7	0	2	90	0.00	30.349 
15:00	31.2	31.2	31.2	70	22.6	0	2	90	0.01	30.346 
15:05	31.0	31.0	31.0	71	22.7	0	1	90	0.00	30.350 
15:10	31.0	31.0	31.0	70	22.4	1	2	90	0.00	30.350 
15:15	31.0	31.0	31.0	71	22.7	1	3	90	0.00	30.361 
15:20	31.0	31.0	31.0	70	22.4	0	1	90	0.00	30.361 
15:25	31.2	31.2	31.2	70	22.6	0	1	90	0.00	30.361 
15:30	31.0	31.0	31.0	71	22.7	0	2	90	0.00	30.363 
15:35	31.2	31.2	31.2	71	22.9	0	1	90	0.00	30.361 
15:40	31.2	31.2	31.2	70	22.6	0	1	90	0.00	30.366 
15:45	31.2	31.2	31.2	71	22.9	0	2	90	0.00	30.362 
15:50	31.2	31.2	31.2	71	22.9	0	1	90	0.00	30.357 
15:55	31.0	31.0	31.0	71	22.7	0	2	90	0.00	30.352 
16:00	30.9	30.9	30.9	72	23.0	0	2	90	0.00	30.351 
16:05	30.7	30.7	30.7	71	22.4	1	2	90	0.00	30.360 
16:10	30.7	30.7	30.7	72	22.8	0	2	90	0.00	30.355 
16:15	30.7	30.7	30.7	71	22.4	1	3	90	0.00	30.354 
16:20	30.6	30.6	30.6	72	22.7	0	2	90	0.00	30.366 
16:25	30.6	30.6	30.6	72	22.7	0	1	90	0.00	30.363 
16:30	30.6	30.6	30.6	72	22.7	0	3	90	0.00	30.366 
16:35	30.6	30.6	30.6	73	23.0	0	2	90	0.00	30.360 
16:40	30.6	30.6	30.6	73	23.0	0	1	158	0.00	30.364 
16:45	30.4	30.4	30.4	73	22.8	0	1	158	0.00	30.364 
16:50	30.4	30.4	30.4	72	22.5	0	2	158	0.00	30.366 
16:55	30.3	30.3	30.3	73	22.7	0	1	158	0.00	30.365 
17:00	30.3	30.3	30.3	73	22.7	1	3	158	0.00	30.350 
17:05	30.3	30.3	30.3	73	22.7	1	4	90	0.00	30.356 
17:10	30.3	30.3	30.3	72	22.4	1	5	90	0.00	30.355 
17:15	30.1	30.1	30.1	72	22.2	1	3	90	0.00	30.364 
17:20	30.1	30.1	30.1	72	22.2	0	2	90	0.00	30.368 
17:25	30.1	30.1	30.1	73	22.5	1	2	90	0.00	30.368 
17:30	30.1	30.1	30.1	73	22.5	1	2	90	0.00	30.367 
17:35	30.1	30.1	30.1	73	22.5	0	2	90	0.00	30.364 
17:40	30.1	30.1	30.1	74	22.8	0	2	90	0.00	30.367 
17:45	30.1	30.1	30.1	75	23.2	0	2	90	0.00	30.365 
17:50	30.1	30.1	30.1	75	23.2	0	2	90	0.00	30.366 
17:55	30.1	30.1	30.1	75	23.2	0	2	90	0.00	30.366 
18:00	30.1	30.1	30.1	74	22.8	0	1	90	0.00	30.369 
18:05	30.1	30.1	30.1	74	22.8	0	1	90	0.00	30.368 
18:10	30.1	30.1	30.1	74	22.8	0	2	90	0.00	30.378 
18:15	30.1	30.1	30.1	74	22.8	0	1	90	0.00	30.381 
18:20	30.1	30.1	30.1	74	22.8	0	0	---	0.00	30.383 
18:25	30.1	30.1	30.1	73	22.5	0	1	90	0.00	30.384 
18:30	30.1	30.1	30.1	73	22.5	0	1	90	0.00	30.376 
18:35	30.1	30.1	30.1	73	22.5	1	2	90	0.00	30.367 
18:40	30.3	30.3	30.3	73	22.7	0	2	90	0.00	30.368 
18:45	30.3	30.3	30.3	73	22.7	1	3	90	0.00	30.358 
18:50	30.3	30.3	30.3	73	22.7	2	4	90	0.00	30.356 
18:55	30.3	30.3	30.3	75	23.3	1	3	90	0.00	30.356 
19:00	30.3	30.3	30.3	75	23.3	0	1	90	0.00	30.365 
19:05	30.1	30.1	30.1	75	23.2	0	2	90	0.00	30.369 
19:10	30.1	30.1	30.1	75	23.2	0	2	90	0.00	30.369 
19:15	30.1	30.1	30.1	74	22.8	0	2	90	0.00	30.375 
19:20	30.1	30.1	30.1	74	22.8	0	1	90	0.00	30.370 
19:25	30.1	30.1	30.1	73	22.5	0	3	90	0.00	30.368 
19:30	30.1	30.1	30.1	75	23.2	0	1	90	0.00	30.369 
19:35	30.1	30.1	30.1	75	23.2	0	1	90	0.00	30.371 
19:40	30.1	30.1	30.1	75	23.2	1	3	90	0.00	30.368 
19:45	30.1	30.1	30.1	76	23.5	0	1	90	0.00	30.378 
19:50	30.1	30.1	30.1	77	23.8	0	1	90	0.00	30.376 
19:55	30.1	30.1	30.1	77	23.8	0	1	90	0.00	30.372 
20:00	30.1	30.1	30.1	78	24.1	0	1	90	0.00	30.384 
20:05	30.1	30.1	30.1	77	23.8	0	1	90	0.00	30.384 
20:10	30.1	30.1	30.1	77	23.8	0	1	90	0.00	30.383 
20:15	30.1	30.1	30.1	77	23.8	0	1	90	0.00	30.381 
20:20	30.1	30.1	30.1	77	23.8	0	1	90	0.00	30.387 
20:25	30.0	30.0	30.0	77	23.7	0	2	90	0.00	30.384 
20:30	30.0	30.0	30.0	76	23.4	0	1	90	0.00	30.382 
20:35	30.0	30.0	30.0	76	23.4	1	3	90	0.00	30.373 
20:40	30.1	30.1	30.1	76	23.5	0	2	90	0.00	30.381 
20:45	30.1	30.1	30.1	76	23.5	0	1	90	0.00	30.381 
20:50	30.1	30.1	30.1	76	23.5	0	1	90	0.00	30.381 
20:55	30.1	30.1	30.1	76	23.5	0	2	90	0.00	30.381 
21:00	30.1	30.1	30.1	77	23.8	0	1	90	0.00	30.372 
21:05	30.1	30.1	30.1	77	23.8	1	2	90	0.00	30.365 
21:10	30.0	30.0	30.0	76	23.4	1	5	112	0.00	30.362 
21:15	30.0	30.0	30.0	77	23.7	0	2	90	0.00	30.360 
21:20	30.0	30.0	30.0	78	24.0	0	3	90	0.00	30.359 
21:25	30.0	30.0	30.0	77	23.7	0	2	90	0.00	30.363 
21:30	30.0	30.0	30.0	77	23.7	1	3	68	0.00	30.353 
21:35	30.0	30.0	30.0	77	23.7	0	2	135	0.00	30.356 
21:40	29.8	29.8	29.8	77	23.5	1	5	135	0.00	30.361 
21:45	29.8	29.8	29.8	75	22.9	1	6	112	0.00	30.367 
21:50	29.8	29.8	29.8	75	22.9	1	3	112	0.00	30.367 
21:55	30.0	30.0	30.0	77	23.7	0	3	158	0.00	30.366 
22:00	30.0	30.0	30.0	78	24.0	0	2	135	0.00	30.364 
22:05	30.0	30.0	30.0	77	23.7	1	2	90	0.00	30.362 
22:10	29.8	29.8	29.8	78	23.8	0	2	68	0.00	30.363 
22:15	29.8	29.8	29.8	77	23.5	1	3	90	0.00	30.351 
22:20	29.7	29.7	29.7	77	23.4	2	4	112	0.00	30.348 
22:25	29.7	29.7	29.7	77	23.4	1	5	90	0.00	30.348 
22:30	29.7	29.7	29.7	77	23.4	2	4	112	0.00	30.346 
22:35	29.5	29.5	29.5	77	23.2	3	5	90	0.00	30.348 
22:40	29.5	29.5	29.5	76	22.9	2	5	112	0.00	30.350 
22:45	29.5	29.5	29.5	76	22.9	3	6	112	0.00	30.349 
22:50	29.5	29.5	29.5	77	23.2	1	3	112	0.00	30.361 
22:55	29.5	29.5	29.5	77	23.2	1	3	68	0.00	30.362 
23:00	29.5	29.5	29.5	77	23.2	1	4	90	0.00	30.363 
23:05	29.5	29.5	29.5	77	23.2	1	3	112	0.00	30.361 
23:10	29.4	29.4	29.4	77	23.1	1	4	112	0.00	30.360 
23:15	29.4	29.4	29.4	77	23.1	1	5	90	0.00	30.361 
23:20	29.4	29.4	29.4	77	23.1	1	3	112	0.00	30.365 
23:25	29.4	29.4	29.4	77	23.1	1	4	112	0.00	30.356 
23:30	29.4	29.4	29.4	77	23.1	1	3	112	0.00	30.357 
23:35	29.4	29.4	29.4	77	23.1	1	3	90	0.00	30.362 
23:40	29.4	29.4	29.4	77	23.1	0	2	68	0.00	30.364 
23:45	29.4	29.4	29.4	77	23.1	1	3	68	0.00	30.364 
23:50	29.4	29.4	29.4	77	23.1	1	4	112	0.00	30.362 
23:55	29.4	29.4	29.4	77	23.1	0	2	45	0.00	30.363 

CoCoRaHS
IN-AL-39
A2 Web Hosting
Creative Commons License
GoDaddy
Look for:

loaded 2017-10-19 12:37:46 • last modified 2010-11-18 10:43:29
Privacy PolicyDisclaimer
• wx.awcolley.com is powered by PmWiki v.2002016 •
• all content (unless otherwise noted) © 2017 A W Colley